createdAt,value
2022-10-11T00:01:25.906Z,16.04
2022-10-11T00:03:05.710Z,16.02
2022-10-11T00:04:45.447Z,16.03
2022-10-11T00:06:25.206Z,15.98
2022-10-11T00:08:05.004Z,16
2022-10-11T00:09:44.757Z,15.96
2022-10-11T00:11:24.556Z,15.97
2022-10-11T00:13:04.271Z,15.95
2022-10-11T00:14:44.037Z,15.96
2022-10-11T00:16:23.805Z,15.92
2022-10-11T00:18:03.571Z,15.93
2022-10-11T00:19:43.342Z,15.92
2022-10-11T00:21:23.123Z,15.88
2022-10-11T00:23:02.886Z,15.88
2022-10-11T00:24:42.648Z,15.89
2022-10-11T00:26:22.418Z,15.88
2022-10-11T00:28:02.191Z,15.85
2022-10-11T00:29:41.950Z,15.83
2022-10-11T00:31:21.722Z,15.84
2022-10-11T00:33:01.597Z,15.79
2022-10-11T00:34:41.248Z,15.78
2022-10-11T00:36:21.019Z,15.77
2022-10-11T00:38:00.821Z,15.78
2022-10-11T00:39:40.554Z,15.73
2022-10-11T00:41:20.348Z,15.74
2022-10-11T00:43:00.112Z,15.71
2022-10-11T00:44:39.849Z,15.72
2022-10-11T00:46:19.626Z,15.68
2022-10-11T00:47:59.390Z,15.66
2022-10-11T00:49:39.149Z,15.64
2022-10-11T00:51:18.921Z,15.65
2022-10-11T00:52:58.772Z,15.63
2022-10-11T00:54:38.469Z,15.62
2022-10-11T00:56:18.230Z,15.59
2022-10-11T00:59:37.781Z,15.54
2022-10-11T01:01:17.526Z,15.56
2022-10-11T01:02:57.334Z,15.54
2022-10-11T01:04:37.084Z,15.5
2022-10-11T01:06:16.840Z,15.51
2022-10-11T01:07:56.606Z,15.47
2022-10-11T01:09:36.364Z,15.44
2022-10-11T01:11:16.142Z,15.43
2022-10-11T01:12:55.889Z,15.44
2022-10-11T01:14:35.661Z,15.42
2022-10-11T01:16:15.448Z,15.37
2022-10-11T01:17:55.206Z,15.39
2022-10-11T01:19:34.964Z,15.36
2022-10-11T01:21:14.755Z,15.32
2022-10-11T01:22:54.506Z,15.31
2022-10-11T01:24:34.279Z,15.3
2022-10-11T01:26:14.039Z,15.28
2022-10-11T01:27:53.805Z,15.28
2022-10-11T01:29:33.581Z,15.24
2022-10-11T01:31:13.336Z,15.22
2022-10-11T01:32:53.112Z,15.22
2022-10-11T01:34:32.894Z,15.19
2022-10-11T01:36:12.709Z,15.2
2022-10-11T01:37:52.467Z,15.17
2022-10-11T01:39:32.244Z,15.15
2022-10-11T01:41:11.952Z,15.12
2022-10-11T01:42:51.739Z,15.1
2022-10-11T01:44:31.496Z,15.12
2022-10-11T01:46:11.277Z,15.1
2022-10-11T01:47:51.017Z,15.06
2022-10-11T01:49:30.780Z,15.04
2022-10-11T01:51:10.559Z,15.02
2022-10-11T01:52:50.329Z,15
2022-10-11T01:54:30.084Z,14.98
2022-10-11T01:56:09.848Z,14.97
2022-10-11T01:57:49.637Z,14.95
2022-10-11T01:59:29.393Z,14.96
2022-10-11T02:01:09.163Z,14.91
2022-10-11T02:02:48.911Z,14.91
2022-10-11T02:04:28.693Z,14.88
2022-10-11T02:06:08.464Z,14.87
2022-10-11T02:07:48.227Z,14.86
2022-10-11T02:09:28.002Z,14.83
2022-10-11T02:11:07.799Z,14.82
2022-10-11T02:12:47.534Z,14.8
2022-10-11T02:14:27.303Z,14.76
2022-10-11T02:16:07.065Z,14.77
2022-10-11T02:17:46.838Z,14.73
2022-10-11T02:21:06.370Z,14.72
2022-10-11T02:22:46.139Z,14.67
2022-10-11T02:24:25.900Z,14.64
2022-10-11T02:26:05.666Z,14.63
2022-10-11T02:27:45.464Z,14.64
2022-10-11T02:29:25.272Z,14.62
2022-10-11T02:31:04.965Z,14.57
2022-10-11T02:32:44.742Z,14.55
2022-10-11T02:34:24.514Z,14.54
2022-10-11T02:36:04.267Z,14.52
2022-10-11T02:37:44.048Z,14.49
2022-10-11T02:39:23.822Z,14.49
2022-10-11T02:41:03.570Z,14.46
2022-10-11T02:42:43.336Z,14.46
2022-10-11T02:44:23.144Z,14.45
2022-10-11T02:46:02.875Z,14.4
2022-10-11T02:47:42.651Z,14.38
2022-10-11T02:49:22.418Z,14.37
2022-10-11T02:51:02.183Z,14.34
2022-10-11T02:52:41.945Z,14.32
2022-10-11T02:54:21.711Z,14.31
2022-10-11T02:56:01.549Z,14.29
2022-10-11T02:57:41.267Z,14.29
2022-10-11T02:59:21.014Z,14.27
2022-10-11T03:01:00.794Z,14.26
2022-10-11T03:02:40.618Z,14.2
2022-10-11T03:04:20.328Z,14.19
2022-10-11T03:06:00.085Z,14.17
2022-10-11T03:07:39.849Z,14.17
2022-10-11T03:09:19.613Z,14.14
2022-10-11T03:10:59.385Z,14.12
2022-10-11T03:12:39.139Z,14.11
2022-10-11T03:14:18.922Z,14.11
2022-10-11T03:15:58.696Z,14.06
2022-10-11T03:17:38.459Z,14.04
2022-10-11T03:19:18.233Z,14.04
2022-10-11T03:20:57.985Z,14.01
2022-10-11T03:22:37.763Z,14.01
2022-10-11T03:24:17.565Z,13.98
2022-10-11T03:25:57.420Z,13.98
2022-10-11T03:27:37.050Z,13.94
2022-10-11T03:29:16.837Z,13.94
2022-10-11T03:30:56.583Z,13.92
2022-10-11T03:32:36.397Z,13.9
2022-10-11T03:34:16.129Z,13.89
2022-10-11T03:35:55.937Z,13.85
2022-10-11T03:37:35.693Z,13.82
2022-10-11T03:39:15.417Z,13.81
2022-10-11T03:40:55.204Z,13.79
2022-10-11T03:42:34.964Z,13.81
2022-10-11T03:44:14.731Z,13.79
2022-10-11T03:45:54.581Z,13.74
2022-10-11T03:47:34.270Z,13.73
2022-10-11T03:49:14.032Z,13.73
2022-10-11T03:50:53.812Z,13.68
2022-10-11T03:52:33.566Z,13.67
2022-10-11T03:54:13.331Z,13.67
2022-10-11T03:55:53.162Z,13.66
2022-10-11T03:57:32.865Z,13.63
2022-10-11T03:59:12.622Z,13.63
2022-10-11T04:00:52.388Z,13.61
2022-10-11T04:02:32.150Z,13.59
2022-10-11T04:04:11.921Z,13.55
2022-10-11T04:05:51.728Z,13.53
2022-10-11T04:07:31.456Z,13.53
2022-10-11T04:09:11.267Z,13.51
2022-10-11T04:10:50.973Z,13.48
2022-10-11T04:12:30.867Z,13.46
2022-10-11T04:14:10.560Z,13.48
2022-10-11T04:15:50.278Z,13.44
2022-10-11T04:17:30.187Z,13.42
2022-10-11T04:19:09.841Z,13.4
2022-10-11T04:20:49.588Z,13.41
2022-10-11T04:22:29.423Z,13.36
2022-10-11T04:24:09.111Z,13.34
2022-10-11T04:25:48.910Z,13.33
2022-10-11T04:27:28.708Z,13.35
2022-10-11T04:29:08.438Z,13.31
2022-10-11T04:32:27.924Z,13.27
2022-10-11T04:34:07.731Z,13.25
2022-10-11T04:35:47.447Z,13.24
2022-10-11T04:37:27.332Z,13.23
2022-10-11T04:39:06.985Z,13.2
2022-10-11T04:40:46.736Z,13.19
2022-10-11T04:42:26.520Z,13.18
2022-10-11T04:44:06.287Z,13.16
2022-10-11T04:45:46.041Z,13.12
2022-10-11T04:47:25.822Z,13.13
2022-10-11T04:49:05.551Z,13.13
2022-10-11T04:50:45.411Z,13.11
2022-10-11T04:54:04.843Z,13.08
2022-10-11T04:55:44.684Z,13.05
2022-10-11T04:57:24.440Z,13.05
2022-10-11T04:59:04.135Z,13.03
2022-10-11T05:00:43.907Z,12.99
2022-10-11T05:02:23.675Z,13
2022-10-11T05:04:03.446Z,12.99
2022-10-11T05:05:43.202Z,12.93
2022-10-11T05:07:23.041Z,12.95
2022-10-11T05:10:42.497Z,12.96
2022-10-11T05:12:22.293Z,12.97
2022-10-11T05:14:02.059Z,12.94
2022-10-11T05:15:41.802Z,13
2022-10-11T05:17:21.572Z,12.97
2022-10-11T05:19:01.386Z,13.02
2022-10-11T05:20:41.102Z,13.02
2022-10-11T05:24:00.637Z,13.02
2022-10-11T05:25:40.465Z,13.05
2022-10-11T05:27:20.177Z,13.05
2022-10-11T05:28:59.980Z,13.05
2022-10-11T05:30:39.725Z,13.05
2022-10-11T05:32:19.493Z,13.04
2022-10-11T05:33:59.246Z,13.04
2022-10-11T05:35:39.011Z,13.06
2022-10-11T05:37:18.804Z,13.04
2022-10-11T05:38:58.555Z,13.08
2022-10-11T05:40:38.307Z,13.08
2022-10-11T05:42:18.082Z,13.08
2022-10-11T05:43:57.875Z,13.07
2022-10-11T05:45:37.637Z,13.08
2022-10-11T05:47:17.396Z,13.09
2022-10-11T05:48:57.150Z,13.08
2022-10-11T05:50:36.921Z,13.1
2022-10-11T05:52:16.709Z,13.05
2022-10-11T05:53:56.458Z,13.09
2022-10-11T05:55:36.238Z,13.1
2022-10-11T05:57:16.019Z,13.1
2022-10-11T05:58:55.785Z,13.1
2022-10-11T06:00:35.554Z,13.07
2022-10-11T06:02:15.325Z,13.09
2022-10-11T06:03:55.086Z,13.08
2022-10-11T06:05:34.868Z,13.1
2022-10-11T06:07:14.630Z,13.12
2022-10-11T06:08:54.483Z,13.1
2022-10-11T06:10:34.159Z,13.12
2022-10-11T06:12:13.962Z,13.09
2022-10-11T06:13:53.720Z,13.08
2022-10-11T06:15:33.489Z,13.07
2022-10-11T06:17:13.315Z,13.11
2022-10-11T06:18:53.044Z,13.1
2022-10-11T06:20:32.779Z,13.11
2022-10-11T06:22:12.587Z,13.12
2022-10-11T06:23:52.382Z,13.08
2022-10-11T06:25:32.111Z,13.09
2022-10-11T06:27:11.908Z,13.09
2022-10-11T06:28:51.636Z,13.13
2022-10-11T06:30:31.413Z,13.09
2022-10-11T06:32:11.169Z,13.13
2022-10-11T06:35:30.723Z,13.08
2022-10-11T06:37:10.502Z,13.09
2022-10-11T06:38:50.338Z,13.11
2022-10-11T06:40:30.030Z,13.12
2022-10-11T06:42:09.863Z,13.14
2022-10-11T06:43:49.569Z,13.1
2022-10-11T06:45:29.413Z,13.13
2022-10-11T06:47:09.130Z,13.11
2022-10-11T06:48:49.039Z,13.13
2022-10-11T06:50:28.668Z,13.13
2022-10-11T06:52:08.539Z,13.12
2022-10-11T06:53:48.322Z,13.15
2022-10-11T06:55:28.128Z,13.15
2022-10-11T06:57:07.877Z,13.14
2022-10-11T06:58:47.528Z,13.13
2022-10-11T07:00:27.276Z,13.14
2022-10-11T07:02:07.040Z,13.15
2022-10-11T07:03:46.829Z,13.15
2022-10-11T07:05:26.580Z,13.17
2022-10-11T07:07:06.386Z,13.15
2022-10-11T07:08:46.125Z,13.14
2022-10-11T07:10:25.902Z,13.16
2022-10-11T07:12:05.678Z,13.19
2022-10-11T07:13:45.482Z,13.19
2022-10-11T07:15:25.370Z,13.2
2022-10-11T07:17:05.128Z,13.21
2022-10-11T07:18:44.840Z,13.23
2022-10-11T07:20:24.525Z,13.21
2022-10-11T07:22:04.417Z,13.23
2022-10-11T07:23:44.229Z,13.23
2022-10-11T07:25:23.975Z,13.24
2022-10-11T07:27:03.602Z,13.28
2022-10-11T07:28:43.492Z,13.25
2022-10-11T07:30:23.133Z,13.28
2022-10-11T07:32:02.981Z,13.27
2022-10-11T07:33:42.857Z,13.26
2022-10-11T07:35:22.448Z,13.27
2022-10-11T07:37:02.322Z,13.32
2022-10-11T07:38:42.138Z,13.28
2022-10-11T07:40:21.872Z,13.3
2022-10-11T07:42:01.685Z,13.32
2022-10-11T07:45:21.214Z,13.36
2022-10-11T07:47:00.833Z,13.35
2022-10-11T07:48:40.680Z,13.36
2022-10-11T07:50:20.505Z,13.36
2022-10-11T07:52:00.251Z,13.39
2022-10-11T07:53:39.985Z,13.42
2022-10-11T07:55:19.802Z,13.36
2022-10-11T07:56:59.619Z,13.41
2022-10-11T07:58:39.401Z,13.41
2022-10-11T08:00:19.131Z,13.42
2022-10-11T08:01:58.882Z,13.43
2022-10-11T08:05:18.462Z,13.47
2022-10-11T08:08:38.005Z,13.47
2022-10-11T08:10:17.760Z,13.5
2022-10-11T08:11:57.554Z,13.49
2022-10-11T08:13:37.227Z,13.55
2022-10-11T08:15:17.011Z,13.54
2022-10-11T08:16:56.718Z,13.56
2022-10-11T08:18:36.573Z,13.6
2022-10-11T08:20:16.253Z,13.59
2022-10-11T08:21:56.015Z,13.61
2022-10-11T08:23:35.917Z,13.62
2022-10-11T08:25:15.703Z,13.63
2022-10-11T08:26:55.467Z,13.66
2022-10-11T08:28:35.233Z,13.65
2022-10-11T08:30:15.019Z,13.66
2022-10-11T08:31:54.646Z,13.66
2022-10-11T08:33:34.410Z,13.76
2022-10-11T08:35:14.323Z,13.85
2022-10-11T08:36:54.102Z,13.97
2022-10-11T08:38:33.866Z,14.08
2022-10-11T08:40:13.636Z,14.18
2022-10-11T08:41:53.416Z,14.33
2022-10-11T08:43:33.160Z,14.42
2022-10-11T08:45:12.823Z,14.5
2022-10-11T08:46:52.694Z,14.6
2022-10-11T08:48:32.348Z,14.68
2022-10-11T08:50:12.113Z,14.76
2022-10-11T08:51:51.896Z,14.85
2022-10-11T08:53:31.658Z,14.93
2022-10-11T08:55:11.560Z,14.96
2022-10-11T08:56:51.191Z,15.06
2022-10-11T08:58:30.963Z,15.09
2022-10-11T09:00:10.742Z,15.21
2022-10-11T09:01:50.507Z,15.23
2022-10-11T09:03:30.277Z,15.29
2022-10-11T09:05:10.066Z,15.37
2022-10-11T09:06:49.814Z,15.44
2022-10-11T09:08:29.591Z,15.46
2022-10-11T09:10:09.355Z,15.53
2022-10-11T09:11:49.133Z,15.61
2022-10-11T09:13:28.895Z,15.66
2022-10-11T09:15:08.668Z,15.71
2022-10-11T09:16:48.444Z,15.78
2022-10-11T09:18:28.212Z,15.8
2022-10-11T09:20:07.981Z,15.88
2022-10-11T09:21:47.786Z,15.91
2022-10-11T09:23:27.519Z,16
2022-10-11T09:25:07.302Z,16.02
2022-10-11T09:26:47.076Z,16.04
2022-10-11T09:28:26.951Z,16.12
2022-10-11T09:30:06.619Z,16.12
2022-10-11T09:31:46.378Z,16.2
2022-10-11T09:33:26.179Z,16.25
2022-10-11T09:35:05.909Z,16.32
2022-10-11T09:36:45.694Z,16.34
2022-10-11T09:38:25.488Z,16.41
2022-10-11T09:40:05.222Z,16.43
2022-10-11T09:41:45.009Z,16.46
2022-10-11T09:43:24.769Z,16.51
2022-10-11T09:45:04.543Z,16.54
2022-10-11T09:46:44.296Z,16.61
2022-10-11T09:48:24.109Z,16.62
2022-10-11T09:50:03.844Z,16.7
2022-10-11T09:51:43.634Z,16.73
2022-10-11T09:53:23.390Z,16.81
2022-10-11T09:55:03.157Z,16.81
2022-10-11T09:56:42.932Z,16.87
2022-10-11T09:58:22.720Z,16.92
2022-10-11T10:00:02.539Z,16.92
2022-10-11T10:01:42.241Z,16.99
2022-10-11T10:03:22.020Z,17.01
2022-10-11T10:05:01.884Z,17.04
2022-10-11T10:06:41.582Z,17.1
2022-10-11T10:08:21.328Z,17.12
2022-10-11T10:10:01.119Z,17.16
2022-10-11T10:11:40.854Z,17.18
2022-10-11T10:13:20.636Z,17.24
2022-10-11T10:15:00.418Z,17.24
2022-10-11T10:16:40.246Z,17.28
2022-10-11T10:18:19.954Z,17.29
2022-10-11T10:19:59.724Z,17.36
2022-10-11T10:21:39.484Z,17.36
2022-10-11T10:23:19.274Z,17.4
2022-10-11T10:24:59.058Z,17.41
2022-10-11T10:26:38.818Z,17.46
2022-10-11T10:28:18.576Z,17.49
2022-10-11T10:29:58.397Z,17.51
2022-10-11T10:31:38.120Z,17.54
2022-10-11T10:33:17.945Z,17.56
2022-10-11T10:34:57.701Z,17.59
2022-10-11T10:36:37.415Z,17.6
2022-10-11T10:38:17.170Z,17.68
2022-10-11T10:39:56.966Z,17.69
2022-10-11T10:41:36.727Z,17.7
2022-10-11T10:43:16.511Z,17.74
2022-10-11T10:44:56.273Z,17.73
2022-10-11T10:46:36.056Z,17.82
2022-10-11T10:48:15.806Z,17.83
2022-10-11T10:49:55.696Z,17.82
2022-10-11T10:51:35.346Z,17.86
2022-10-11T10:53:15.137Z,17.91
2022-10-11T10:54:54.902Z,17.93
2022-10-11T10:56:34.662Z,17.92
2022-10-11T10:58:14.451Z,17.95
2022-10-11T10:59:54.221Z,17.98
2022-10-11T11:01:33.981Z,18.01
2022-10-11T11:03:13.740Z,18
2022-10-11T11:04:53.581Z,18.07
2022-10-11T11:06:33.295Z,18.06
2022-10-11T11:08:13.075Z,18.08
2022-10-11T11:09:52.818Z,18.11
2022-10-11T11:11:32.595Z,18.15
2022-10-11T11:13:12.379Z,18.17
2022-10-11T11:14:52.201Z,18.17
2022-10-11T11:16:31.930Z,18.19
2022-10-11T11:18:11.719Z,18.2
2022-10-11T11:19:51.470Z,18.26
2022-10-11T11:21:31.233Z,18.27
2022-10-11T11:23:10.987Z,18.29
2022-10-11T11:24:50.754Z,18.32
2022-10-11T11:26:30.565Z,18.32
2022-10-11T11:28:10.312Z,18.35
2022-10-11T11:29:50.085Z,18.36
2022-10-11T11:31:29.841Z,18.41
2022-10-11T11:33:09.606Z,18.37
2022-10-11T11:34:49.387Z,18.36
2022-10-11T11:36:29.141Z,18.37
2022-10-11T11:38:08.957Z,18.33
2022-10-11T11:39:48.688Z,18.33
2022-10-11T11:41:28.460Z,18.27
2022-10-11T11:43:08.217Z,18.28
2022-10-11T11:44:48.006Z,18.33
2022-10-11T11:46:27.812Z,18.31
2022-10-11T11:48:07.536Z,18.37
2022-10-11T11:49:47.359Z,18.36
2022-10-11T11:51:27.092Z,18.37
2022-10-11T11:53:06.906Z,18.45
2022-10-11T11:54:46.617Z,18.44
2022-10-11T11:56:26.385Z,18.45
2022-10-11T11:58:06.169Z,18.49
2022-10-11T11:59:45.931Z,18.54
2022-10-11T12:01:25.701Z,18.54
2022-10-11T12:03:05.477Z,18.59
2022-10-11T12:04:45.235Z,18.62
2022-10-11T12:06:25.016Z,18.67
2022-10-11T12:08:04.861Z,18.7
2022-10-11T12:09:44.554Z,18.7
2022-10-11T12:11:24.319Z,18.7
2022-10-11T12:13:04.098Z,18.74
2022-10-11T12:14:43.882Z,18.79
2022-10-11T12:16:23.667Z,18.79
2022-10-11T12:18:03.407Z,18.83
2022-10-11T12:19:43.170Z,18.84
2022-10-11T12:21:22.949Z,18.89
2022-10-11T12:23:02.735Z,18.92
2022-10-11T12:24:42.488Z,18.95
2022-10-11T12:26:22.255Z,18.93
2022-10-11T12:28:02.022Z,18.95
2022-10-11T12:29:41.794Z,19
2022-10-11T12:31:21.594Z,19.02
2022-10-11T12:33:01.368Z,19.04
2022-10-11T12:34:41.210Z,19.06
2022-10-11T12:36:20.877Z,19.1
2022-10-11T12:38:00.652Z,19.11
2022-10-11T12:39:40.432Z,19.1
2022-10-11T12:41:20.273Z,19.15
2022-10-11T12:42:59.959Z,19.12
2022-10-11T12:44:39.739Z,19.18
2022-10-11T12:47:59.275Z,19.24
2022-10-11T12:49:39.038Z,19.24
2022-10-11T12:51:18.865Z,19.26
2022-10-11T12:52:58.585Z,19.25
2022-10-11T12:54:38.358Z,19.29
2022-10-11T12:56:18.134Z,19.29
2022-10-11T12:57:57.969Z,19.33
2022-10-11T12:59:37.664Z,19.31
2022-10-11T13:01:17.428Z,19.34
2022-10-11T13:02:57.194Z,19.35
2022-10-11T13:04:37.003Z,19.36
2022-10-11T13:06:16.730Z,19.36
2022-10-11T13:07:56.520Z,19.35
2022-10-11T13:09:36.294Z,19.37
2022-10-11T13:11:16.060Z,19.37
2022-10-11T13:12:55.837Z,19.39
2022-10-11T13:14:35.603Z,19.41
2022-10-11T13:16:15.381Z,19.42
2022-10-11T13:17:55.132Z,19.41
2022-10-11T13:19:34.907Z,19.44
2022-10-11T13:21:14.744Z,19.4
2022-10-11T13:22:54.561Z,19.42
2022-10-11T13:24:34.208Z,19.41
2022-10-11T13:26:13.999Z,19.43
2022-10-11T13:27:53.748Z,19.45
2022-10-11T13:29:33.530Z,19.45
2022-10-11T13:31:13.294Z,19.45
2022-10-11T13:32:53.066Z,19.45
2022-10-11T13:36:12.608Z,19.48
2022-10-11T13:37:52.377Z,19.49
2022-10-11T13:39:32.160Z,19.5
2022-10-11T13:41:11.919Z,19.46
2022-10-11T13:42:51.686Z,19.48
2022-10-11T13:44:31.467Z,19.48
2022-10-11T13:46:11.288Z,19.45
2022-10-11T13:47:51.002Z,19.46
2022-10-11T13:49:30.778Z,19.45
2022-10-11T13:51:10.551Z,19.45
2022-10-11T13:52:50.321Z,19.45
2022-10-11T13:54:30.079Z,19.45
2022-10-11T13:56:09.863Z,19.45
2022-10-11T13:57:49.634Z,19.49
2022-10-11T13:59:29.399Z,19.48
2022-10-11T14:01:09.159Z,19.45
2022-10-11T14:02:49.046Z,19.45
2022-10-11T14:04:28.708Z,19.46
2022-10-11T14:06:08.484Z,19.48
2022-10-11T14:07:48.243Z,19.44
2022-10-11T14:09:28.016Z,19.45
2022-10-11T14:11:07.786Z,19.46
2022-10-11T14:12:47.571Z,19.45
2022-10-11T14:14:27.332Z,19.49
2022-10-11T14:16:07.095Z,19.45
2022-10-11T14:17:46.861Z,19.5
2022-10-11T14:19:26.664Z,19.5
2022-10-11T14:21:06.518Z,19.49
2022-10-11T14:22:46.175Z,19.49
2022-10-11T14:24:25.959Z,19.48
2022-10-11T14:26:05.725Z,19.53
2022-10-11T14:27:45.486Z,19.53
2022-10-11T14:29:25.271Z,19.53
2022-10-11T14:31:05.040Z,19.52
2022-10-11T14:32:44.814Z,19.52
2022-10-11T14:34:24.567Z,19.5
2022-10-11T14:36:04.360Z,19.53
2022-10-11T14:37:44.173Z,19.5
2022-10-11T14:39:23.887Z,19.49
2022-10-11T14:41:03.673Z,19.5
2022-10-11T14:42:43.436Z,19.5
2022-10-11T14:44:23.205Z,19.5
2022-10-11T14:46:02.958Z,19.45
2022-10-11T14:47:42.733Z,19.49
2022-10-11T14:49:22.500Z,19.49
2022-10-11T14:51:02.321Z,19.46
2022-10-11T14:52:42.087Z,19.46
2022-10-11T14:54:21.819Z,19.49
2022-10-11T14:57:41.369Z,19.5
2022-10-11T14:59:21.145Z,19.46
2022-10-11T15:01:00.909Z,19.46
2022-10-11T15:02:40.676Z,19.45
2022-10-11T15:04:20.456Z,19.45
2022-10-11T15:06:00.266Z,19.45
2022-10-11T15:07:39.985Z,19.48
2022-10-11T15:09:19.761Z,19.44
2022-10-11T15:10:59.524Z,19.45
2022-10-11T15:12:39.288Z,19.49
2022-10-11T15:14:19.057Z,19.48
2022-10-11T15:15:58.953Z,19.48
2022-10-11T15:17:38.608Z,19.46
2022-10-11T15:19:18.383Z,19.45
2022-10-11T15:20:58.147Z,19.45
2022-10-11T15:22:37.922Z,19.45
2022-10-11T15:24:17.685Z,19.42
2022-10-11T15:25:57.585Z,19.45
2022-10-11T15:27:37.212Z,19.45
2022-10-11T15:29:16.997Z,19.44
2022-10-11T15:30:56.806Z,19.45
2022-10-11T15:32:36.541Z,19.44
2022-10-11T15:34:16.330Z,19.44
2022-10-11T15:35:56.179Z,19.41
2022-10-11T15:37:35.839Z,19.44
2022-10-11T15:39:15.630Z,19.41
2022-10-11T15:40:55.387Z,19.42
2022-10-11T15:42:35.168Z,19.37
2022-10-11T15:44:14.973Z,19.41
2022-10-11T15:45:54.780Z,19.37
2022-10-11T15:47:34.511Z,19.36
2022-10-11T15:50:54.032Z,19.34
2022-10-11T15:52:33.858Z,19.33
2022-10-11T15:54:13.560Z,19.33
2022-10-11T15:55:53.394Z,19.31
2022-10-11T15:57:33.099Z,19.32
2022-10-11T15:59:12.869Z,19.27
2022-10-11T16:00:52.675Z,19.29
2022-10-11T16:02:32.398Z,19.29
2022-10-11T16:04:12.195Z,19.27
2022-10-11T16:05:51.980Z,19.26
2022-10-11T16:07:31.714Z,19.28
2022-10-11T16:09:11.488Z,19.21
2022-10-11T16:10:51.258Z,19.2
2022-10-11T16:12:31.025Z,19.18
2022-10-11T16:14:10.825Z,19.12
2022-10-11T16:15:50.565Z,19.08
2022-10-11T16:17:30.426Z,19.06
2022-10-11T16:19:10.097Z,18.99
2022-10-11T16:20:49.874Z,19
2022-10-11T16:22:29.649Z,18.95
2022-10-11T16:24:09.463Z,18.93
2022-10-11T16:25:49.208Z,18.89
2022-10-11T16:27:28.942Z,18.89
2022-10-11T16:29:08.721Z,18.86
2022-10-11T16:30:48.479Z,18.81
2022-10-11T16:32:28.255Z,18.79
2022-10-11T16:34:08.031Z,18.77
2022-10-11T16:37:27.574Z,18.7
2022-10-11T16:39:07.322Z,18.67
2022-10-11T16:40:47.059Z,18.66
2022-10-11T16:42:26.867Z,18.61
2022-10-11T16:44:06.608Z,18.58
2022-10-11T16:45:46.368Z,18.57
2022-10-11T16:47:26.150Z,18.51
2022-10-11T16:49:05.919Z,18.48
2022-10-11T16:50:45.682Z,18.41
2022-10-11T16:52:25.481Z,18.37
2022-10-11T16:54:05.243Z,18.33
2022-10-11T16:55:44.988Z,18.27
2022-10-11T16:57:24.763Z,18.2
2022-10-11T16:59:04.517Z,18.17
2022-10-11T17:00:44.289Z,18.1
2022-10-11T17:02:24.092Z,18.04
2022-10-11T17:04:03.812Z,18.02
2022-10-11T17:05:43.581Z,17.95
2022-10-11T17:07:23.363Z,17.94
2022-10-11T17:09:03.183Z,17.86
2022-10-11T17:10:42.896Z,17.83
2022-10-11T17:12:22.655Z,17.77
2022-10-11T17:14:02.413Z,17.74
2022-10-11T17:15:42.198Z,17.68
2022-10-11T17:17:21.975Z,17.64
2022-10-11T17:19:01.743Z,17.61
2022-10-11T17:20:41.496Z,17.56
2022-10-11T17:22:21.268Z,17.53
2022-10-11T17:24:01.020Z,17.48
2022-10-11T17:25:40.789Z,17.43
2022-10-11T17:27:20.560Z,17.4
2022-10-11T17:29:00.337Z,17.35
2022-10-11T17:30:40.098Z,17.29
2022-10-11T17:32:19.934Z,17.28
2022-10-11T17:33:59.684Z,17.24
2022-10-11T17:35:39.427Z,17.19
2022-10-11T17:37:19.189Z,17.16
2022-10-11T17:38:59.018Z,17.1
2022-10-11T17:40:38.704Z,17.07
2022-10-11T17:42:18.504Z,17.02
2022-10-11T17:43:58.263Z,16.99
2022-10-11T17:45:38.014Z,16.94
2022-10-11T17:47:17.809Z,16.93
2022-10-11T17:48:57.578Z,16.86
2022-10-11T17:50:37.312Z,16.85
2022-10-11T17:52:17.106Z,16.79
2022-10-11T17:53:56.834Z,16.77
2022-10-11T17:55:36.600Z,16.74
2022-10-11T17:57:16.383Z,16.7
2022-10-11T17:58:56.143Z,16.66
2022-10-11T18:00:35.908Z,16.62
2022-10-11T18:02:15.713Z,16.57
2022-10-11T18:03:55.447Z,16.51
2022-10-11T18:05:35.265Z,16.5
2022-10-11T18:07:14.971Z,16.45
2022-10-11T18:08:54.757Z,16.43
2022-10-11T18:10:34.510Z,16.37
2022-10-11T18:12:14.289Z,16.33
2022-10-11T18:13:54.044Z,16.32
2022-10-11T18:15:33.821Z,16.27
2022-10-11T18:17:13.577Z,16.24
2022-10-11T18:18:53.359Z,16.18
2022-10-11T18:20:33.121Z,16.17
2022-10-11T18:22:12.888Z,16.11
2022-10-11T18:23:52.683Z,16.08
2022-10-11T18:25:32.428Z,16.04
2022-10-11T18:27:12.217Z,16.03
2022-10-11T18:28:51.956Z,15.97
2022-10-11T18:30:31.722Z,15.96
2022-10-11T18:32:11.496Z,15.92
2022-10-11T18:33:51.275Z,15.86
2022-10-11T18:35:31.026Z,15.84
2022-10-11T18:37:10.792Z,15.79
2022-10-11T18:38:50.556Z,15.76
2022-10-11T18:40:30.320Z,15.73
2022-10-11T18:42:10.158Z,15.7
2022-10-11T18:43:49.861Z,15.68
2022-10-11T18:47:09.417Z,15.61
2022-10-11T18:48:49.182Z,15.57
2022-10-11T18:50:28.964Z,15.53
2022-10-11T18:52:08.775Z,15.47
2022-10-11T18:53:48.515Z,15.44
2022-10-11T18:55:28.255Z,15.41
2022-10-11T18:57:07.997Z,15.39
2022-10-11T18:58:47.767Z,15.34
2022-10-11T19:00:27.547Z,15.32
2022-10-11T19:02:07.328Z,15.29
2022-10-11T19:03:47.083Z,15.27
2022-10-11T19:05:26.861Z,15.22
2022-10-11T19:07:06.606Z,15.18
2022-10-11T19:08:46.386Z,15.14
2022-10-11T19:10:26.136Z,15.13
2022-10-11T19:12:05.973Z,15.1
2022-10-11T19:13:45.700Z,15.05
2022-10-11T19:15:25.446Z,15.03
2022-10-11T19:17:05.220Z,15.01
2022-10-11T19:18:44.976Z,14.95
2022-10-11T19:20:24.768Z,14.95
2022-10-11T19:22:04.519Z,14.91
2022-10-11T19:23:44.279Z,14.88
2022-10-11T19:25:24.048Z,14.82
2022-10-11T19:27:03.809Z,14.8
2022-10-11T19:30:23.350Z,14.73
2022-10-11T19:32:03.188Z,14.71
2022-10-11T19:33:42.877Z,14.66
2022-10-11T19:35:22.686Z,14.65
2022-10-11T19:37:02.430Z,14.61
2022-10-11T19:38:42.188Z,14.57
2022-10-11T19:40:21.948Z,14.55
2022-10-11T19:42:01.715Z,14.54
2022-10-11T19:43:41.491Z,14.49
2022-10-11T19:45:21.260Z,14.48
2022-10-11T19:47:01.014Z,14.43
2022-10-11T19:50:20.556Z,14.37
2022-10-11T19:52:00.335Z,14.35
2022-10-11T19:53:40.164Z,14.31
2022-10-11T19:55:19.868Z,14.29
2022-10-11T19:56:59.632Z,14.28
2022-10-11T19:58:39.401Z,14.22
2022-10-11T20:00:19.182Z,14.22
2022-10-11T20:01:58.947Z,14.18
2022-10-11T20:03:38.695Z,14.15
2022-10-11T20:05:18.480Z,14.11
2022-10-11T20:06:58.280Z,14.08
2022-10-11T20:08:38.094Z,14.08
2022-10-11T20:10:17.758Z,14.05
2022-10-11T20:11:57.615Z,14
2022-10-11T20:13:37.429Z,13.98
2022-10-11T20:15:17.224Z,13.95
2022-10-11T20:16:56.935Z,13.92
2022-10-11T20:18:36.759Z,13.9
2022-10-11T20:20:16.516Z,13.89
2022-10-11T20:21:56.297Z,13.83
2022-10-11T20:23:36.056Z,13.82
2022-10-11T20:25:15.686Z,13.81
2022-10-11T20:26:55.535Z,13.76
2022-10-11T20:28:35.323Z,13.75
2022-10-11T20:30:14.979Z,13.71
2022-10-11T20:31:54.775Z,13.69
2022-10-11T20:33:34.573Z,13.65
2022-10-11T20:35:14.284Z,13.63
2022-10-11T20:36:54.080Z,13.61
2022-10-11T20:38:33.823Z,13.57
2022-10-11T20:40:13.637Z,13.57
2022-10-11T20:41:53.345Z,13.53
2022-10-11T20:43:33.126Z,13.49
2022-10-11T20:45:12.940Z,13.46
2022-10-11T20:46:52.678Z,13.45
2022-10-11T20:48:32.436Z,13.45
2022-10-11T20:50:12.219Z,13.42
2022-10-11T20:51:52.053Z,13.36
2022-10-11T20:53:31.713Z,13.37
2022-10-11T20:55:11.488Z,13.34
2022-10-11T20:56:51.280Z,13.32
2022-10-11T20:58:31.042Z,13.3
2022-10-11T21:00:10.874Z,13.28
2022-10-11T21:01:50.552Z,13.23
2022-10-11T21:03:30.413Z,13.2
2022-10-11T21:05:10.084Z,13.19
2022-10-11T21:06:49.859Z,13.17
2022-10-11T21:08:29.736Z,13.16
2022-10-11T21:10:09.470Z,13.14
2022-10-11T21:13:28.993Z,13.07
2022-10-11T21:15:08.744Z,13.03
2022-10-11T21:16:48.550Z,13.04
2022-10-11T21:18:28.272Z,13
2022-10-11T21:20:08.061Z,12.99
2022-10-11T21:21:47.833Z,12.98
2022-10-11T21:23:27.523Z,12.96
2022-10-11T21:25:07.319Z,12.93
2022-10-11T21:26:47.070Z,12.92
2022-10-11T21:28:26.883Z,12.89
2022-10-11T21:30:06.664Z,12.87
2022-10-11T21:31:46.366Z,12.83
2022-10-11T21:33:26.144Z,12.83
2022-10-11T21:35:05.951Z,12.81
2022-10-11T21:36:45.726Z,12.76
2022-10-11T21:38:25.459Z,12.74
2022-10-11T21:40:05.213Z,12.74
2022-10-11T21:41:45.018Z,12.72
2022-10-11T21:43:24.744Z,12.7
2022-10-11T21:45:04.526Z,12.66
2022-10-11T21:46:44.274Z,12.63
2022-10-11T21:48:24.053Z,12.64
2022-10-11T21:50:03.838Z,12.61
2022-10-11T21:51:43.657Z,12.6
2022-10-11T21:53:23.410Z,12.55
2022-10-11T21:55:03.166Z,12.56
2022-10-11T21:56:42.908Z,12.52
2022-10-11T21:58:22.732Z,12.49
2022-10-11T22:00:02.416Z,12.46
2022-10-11T22:01:42.221Z,12.45